Galena, Nevada Weather observations

Data are for 10 minute period ending at time listed.
 Day   Time    Ave.   Ave.  Ave.  Vector   Max.   Total    Solar   
  of    of     Air    Rel.  Wind   Wind    Wind  Precip.   Rad.    
Year   Day     Temp.  Hum.  Speed  Dir.    Gust                    
2014   (PST)    F      %     mph   deg.    mph     in.     W/m2    
------------------------------------------------------------------- 
 259   19:00   74.0    20   17.0   230     29.0    3.96       2  
 259   20:00   73.0    18   17.0   223     35.0    3.96       0  
 259   21:00   71.0    17   18.0   228     36.0    3.96       0  
 259   22:00   73.0    15   22.0   231     41.0    3.96       0  
 259   23:00   71.0    14   20.0   224     43.0    3.96       0  
 260    0:00   70.0    16   10.0   193     31.0    3.96       0  
 260    1:00   69.0    16    8.0   182     28.0    3.96       0  
 260    2:00   69.0    16    9.0   198     27.0    3.96       0  
 260    3:00   66.0    22    6.0   113     24.0    3.96       0  
 260    4:00   66.0    22    4.0   280     23.0    3.96       0  
 260    5:00   68.0    25   11.0   200     21.0    3.96       0  
 260    6:00   62.0    29    3.0   167     20.0    3.96       1  
 260    7:00   70.0    23    4.0   152      9.0    3.96     114  
 260    8:00   70.0    23    5.0   125     10.0    3.96     203  
 260    9:00   77.0    21   10.0   186     21.0    3.96     507  
 260   10:00   78.0    20   13.0   200     30.0    3.96     613  
 260   11:00   77.0    19   18.0   206     37.0    3.96     696  
 260   12:00   81.0    17   19.0   217     38.0    3.96     832  
 260   13:00   79.0    17   21.0   220     42.0    3.96     833  
 260   14:00   80.0    17   19.0   221     44.0    3.96     771  
 260   15:00   81.0    18   17.0   230     40.0    3.96     648  
 260   16:00   79.0    19   20.0   217     46.0    3.96     456  
 260   17:00   77.0    20   16.0   222     36.0    3.96     292  
 260   18:00   72.0    24   17.0   234     39.0    3.96      50  

Return to Galena, Nevada graphs page.


Western Regional Climate Center,wrcc@dri.edu